Aviation Digital Data Service (ADDS)

Output produced by METARs form (1023 UTC 19 January 2019)
found at http://www.aviationweather.gov/metar/data/
 
VNKT 190950Z 27007KT 230V310 7000 FEW020 SCT030 17/04 Q1018 NOSIG
TAF VNKT 190500Z 1906/2006 12003KT 3000 BR/HZ FEW015 
     BECMG 1907/1908 26008KT 7000 FEW020 SCT250 
     BECMG 1914/1915 10003KT 5000 BR FEW015 SCT030 
     BECMG 2000/2002 00000KT 3000 BR FEW010 SCT100 
     PROB40 2001/2003 1000 BR 
     BECMG 2004/2005 12003KT 4000 BR/HZ FEW015